createdAt,value
2023-02-17T00:00:31.589Z,10.67
2023-02-17T00:01:33.332Z,10.65
2023-02-17T00:02:35.221Z,10.67
2023-02-17T00:03:36.775Z,10.75
2023-02-17T00:04:38.337Z,10.78
2023-02-17T00:05:40.453Z,10.72
2023-02-17T00:06:42.030Z,10.71
2023-02-17T00:07:43.644Z,10.77
2023-02-17T00:08:45.441Z,10.76
2023-02-17T00:09:46.967Z,10.89
2023-02-17T00:11:00.788Z,10.93
2023-02-17T00:12:02.276Z,10.96
2023-02-17T00:13:04.008Z,10.97
2023-02-17T00:14:05.540Z,11.01
2023-02-17T00:15:07.309Z,11.06
2023-02-17T00:16:10.132Z,10.99
2023-02-17T00:17:11.662Z,10.99
2023-02-17T00:18:13.158Z,11.00
2023-02-17T00:19:25.062Z,10.94
2023-02-17T00:20:30.918Z,11.04
2023-02-17T00:21:32.820Z,11.10
2023-02-17T00:22:34.288Z,11.07
2023-02-17T00:23:35.858Z,10.93
2023-02-17T00:24:38.618Z,10.86
2023-02-17T00:25:40.535Z,10.91
2023-02-17T00:26:42.121Z,10.85
2023-02-17T00:27:43.607Z,10.98
2023-02-17T00:28:45.429Z,11.01
2023-02-17T00:29:46.929Z,11.12
2023-02-17T00:30:48.800Z,11.15
2023-02-17T00:31:52.491Z,11.06
2023-02-17T00:32:54.153Z,11.13
2023-02-17T00:33:56.018Z,11.08
2023-02-17T00:34:58.534Z,11.07
2023-02-17T00:36:03.802Z,10.99
2023-02-17T00:37:05.571Z,11.06
2023-02-17T00:38:07.119Z,11.08
2023-02-17T00:39:08.705Z,11.13
2023-02-17T00:40:10.740Z,11.09
2023-02-17T00:41:13.169Z,11.10
2023-02-17T00:42:14.682Z,11.07
2023-02-17T00:43:16.189Z,10.97
2023-02-17T00:44:20.302Z,10.90
2023-02-17T00:45:22.183Z,10.91
2023-02-17T00:46:23.838Z,10.90
2023-02-17T00:47:25.365Z,10.94
2023-02-17T00:48:26.982Z,10.81
2023-02-17T00:49:28.487Z,10.85
2023-02-17T00:50:30.334Z,10.86
2023-02-17T00:51:31.995Z,10.89
2023-02-17T00:52:33.581Z,10.97
2023-02-17T00:53:35.096Z,10.90
2023-02-17T00:54:36.911Z,10.77
2023-02-17T00:55:38.464Z,10.74
2023-02-17T00:56:39.983Z,10.72
2023-02-17T00:57:41.925Z,10.68
2023-02-17T00:58:43.500Z,10.66
2023-02-17T00:59:45.011Z,10.73
2023-02-17T01:00:46.976Z,10.66
2023-02-17T01:01:48.627Z,10.71
2023-02-17T01:02:50.154Z,10.66
2023-02-17T01:03:51.771Z,10.64
2023-02-17T01:04:53.554Z,10.74
2023-02-17T01:05:55.583Z,10.77
2023-02-17T01:06:57.096Z,10.79
2023-02-17T01:07:58.631Z,10.82
2023-02-17T01:09:00.212Z,10.78
2023-02-17T01:10:02.203Z,10.75
2023-02-17T01:11:03.730Z,10.78
2023-02-17T01:12:05.341Z,10.77
2023-02-17T01:13:06.973Z,10.65
2023-02-17T01:14:08.435Z,10.75
2023-02-17T01:15:10.296Z,10.69
2023-02-17T01:16:17.401Z,10.76
2023-02-17T01:17:18.912Z,10.90
2023-02-17T01:18:22.381Z,10.85
2023-02-17T01:19:23.882Z,10.97
2023-02-17T01:20:25.728Z,11.01
2023-02-17T01:21:28.057Z,10.97
2023-02-17T01:22:29.785Z,10.99
2023-02-17T01:23:31.279Z,10.88
2023-02-17T01:24:32.872Z,10.88
2023-02-17T01:25:43.656Z,10.87
2023-02-17T01:26:45.423Z,11.01
2023-02-17T01:27:47.341Z,10.92
2023-02-17T01:28:49.038Z,10.91
2023-02-17T01:29:50.609Z,10.88
2023-02-17T01:30:52.200Z,10.83
2023-02-17T01:31:53.756Z,10.79
2023-02-17T01:32:55.495Z,10.78
2023-02-17T01:33:57.912Z,10.79
2023-02-17T01:34:59.710Z,10.80
2023-02-17T01:36:05.390Z,10.76
2023-02-17T01:37:07.068Z,10.88
2023-02-17T01:38:08.634Z,10.75
2023-02-17T01:39:11.422Z,10.76
2023-02-17T01:40:16.843Z,10.80
2023-02-17T01:41:19.419Z,10.92
2023-02-17T01:42:21.194Z,10.90
2023-02-17T01:43:22.785Z,10.81
2023-02-17T01:44:25.318Z,10.91
2023-02-17T01:45:47.047Z,10.99
2023-02-17T01:46:49.936Z,11.10
2023-02-17T01:47:51.368Z,11.10
2023-02-17T01:48:52.866Z,11.06
2023-02-17T01:49:54.353Z,11.05
2023-02-17T01:51:04.313Z,11.10
2023-02-17T01:52:15.801Z,11.03
2023-02-17T01:53:20.227Z,11.14
2023-02-17T01:54:27.304Z,10.94
2023-02-17T01:55:28.900Z,11.05
2023-02-17T01:56:30.410Z,11.02
2023-02-17T01:57:32.891Z,10.86
2023-02-17T01:58:34.420Z,10.98
2023-02-17T01:59:35.914Z,10.96
2023-02-17T02:00:37.441Z,10.94
2023-02-17T02:01:39.102Z,10.96
2023-02-17T02:02:42.233Z,10.93
2023-02-17T02:03:43.930Z,10.93
2023-02-17T02:04:47.128Z,10.87
2023-02-17T02:05:48.738Z,10.90
2023-02-17T02:06:50.402Z,10.98
2023-02-17T02:07:51.928Z,11.06
2023-02-17T02:08:56.790Z,11.05
2023-02-17T02:09:58.610Z,11.12
2023-02-17T02:11:00.186Z,11.24
2023-02-17T02:12:01.695Z,11.06
2023-02-17T02:13:03.237Z,11.04
2023-02-17T02:14:05.072Z,11.16
2023-02-17T02:15:29.926Z,11.18
2023-02-17T02:16:49.974Z,11.29
2023-02-17T02:18:04.406Z,11.27
2023-02-17T02:19:33.565Z,11.37
2023-02-17T02:21:07.763Z,11.22
2023-02-17T02:22:20.788Z,11.23
2023-02-17T02:23:44.123Z,11.17
2023-02-17T02:24:51.573Z,11.26
2023-02-17T02:25:55.888Z,11.17
2023-02-17T02:27:21.425Z,11.21
2023-02-17T02:28:47.786Z,11.23
2023-02-17T02:30:16.594Z,11.24
2023-02-17T02:31:44.258Z,11.36
2023-02-17T02:32:50.029Z,11.30
2023-02-17T02:33:53.819Z,11.14
2023-02-17T02:35:22.407Z,11.13
2023-02-17T02:36:29.679Z,11.25
2023-02-17T02:37:38.604Z,11.18
2023-02-17T02:38:54.557Z,11.22
2023-02-17T02:39:56.079Z,11.25
2023-02-17T02:41:02.511Z,11.18
2023-02-17T02:42:06.520Z,11.08
2023-02-17T02:43:08.060Z,11.15
2023-02-17T02:44:10.282Z,11.09
2023-02-17T02:45:12.460Z,10.98
2023-02-17T02:46:13.991Z,11.17
2023-02-17T02:47:50.394Z,11.29
2023-02-17T02:48:51.969Z,11.40
2023-02-17T02:49:53.480Z,11.28
2023-02-17T02:51:03.804Z,11.21
2023-02-17T02:52:29.542Z,11.27
2023-02-17T02:53:46.089Z,11.32
2023-02-17T02:55:02.985Z,11.32
2023-02-17T02:56:24.158Z,11.25
2023-02-17T02:57:29.828Z,11.42
2023-02-17T02:58:37.131Z,11.40
2023-02-17T03:00:04.486Z,11.32
2023-02-17T03:01:17.519Z,11.33
2023-02-17T03:02:53.319Z,11.55
2023-02-17T03:04:09.362Z,11.46
2023-02-17T03:05:17.950Z,11.44
2023-02-17T03:06:37.334Z,11.33
2023-02-17T03:07:41.690Z,11.38
2023-02-17T03:08:49.064Z,11.26
2023-02-17T03:09:51.545Z,11.27
2023-02-17T03:10:53.707Z,11.20
2023-02-17T03:11:55.811Z,11.22
2023-02-17T03:12:57.423Z,11.21
2023-02-17T03:14:04.265Z,11.17
2023-02-17T03:15:29.659Z,11.34
2023-02-17T03:16:31.277Z,11.34
2023-02-17T03:17:33.358Z,11.32
2023-02-17T03:18:35.293Z,11.33
2023-02-17T03:19:36.896Z,11.32
2023-02-17T03:20:43.957Z,11.11
2023-02-17T03:22:05.442Z,11.11
2023-02-17T03:23:07.164Z,11.12
2023-02-17T03:24:09.047Z,11.03
2023-02-17T03:25:10.937Z,10.91
2023-02-17T03:26:12.522Z,10.85
2023-02-17T03:27:14.036Z,10.98
2023-02-17T03:28:15.583Z,11.01
2023-02-17T03:29:17.126Z,11.06
2023-02-17T03:30:19.108Z,10.97
2023-02-17T03:31:20.829Z,11.03
2023-02-17T03:32:22.468Z,11.03
2023-02-17T03:33:24.051Z,10.96
2023-02-17T03:34:25.637Z,10.90
2023-02-17T03:35:27.463Z,10.85
2023-02-17T03:36:29.996Z,10.77
2023-02-17T03:37:31.579Z,10.72
2023-02-17T03:38:33.102Z,10.68
2023-02-17T03:39:34.688Z,10.67
2023-02-17T03:40:36.244Z,10.66
2023-02-17T03:41:37.847Z,10.65
2023-02-17T03:42:39.350Z,10.62
2023-02-17T03:43:41.037Z,10.62
2023-02-17T03:44:42.574Z,10.65
2023-02-17T03:45:44.157Z,10.70
2023-02-17T03:46:46.116Z,10.71
2023-02-17T03:47:47.612Z,10.83
2023-02-17T03:48:49.143Z,10.86
2023-02-17T03:49:51.301Z,10.79
2023-02-17T03:50:52.828Z,10.87
2023-02-17T03:51:54.313Z,10.75
2023-02-17T03:52:55.914Z,10.80
2023-02-17T03:53:57.431Z,10.76
2023-02-17T03:54:59.350Z,10.77
2023-02-17T03:56:00.855Z,10.76
2023-02-17T03:57:02.435Z,10.66
2023-02-17T03:58:04.096Z,10.58
2023-02-17T03:59:05.607Z,10.62
2023-02-17T04:00:07.798Z,10.65
2023-02-17T04:01:09.903Z,10.71
2023-02-17T04:02:11.452Z,10.71
2023-02-17T04:03:12.950Z,10.81
2023-02-17T04:04:14.815Z,10.87
2023-02-17T04:05:16.410Z,10.84
2023-02-17T04:06:18.000Z,10.69
2023-02-17T04:07:19.561Z,10.68
2023-02-17T04:08:21.566Z,10.60
2023-02-17T04:09:23.108Z,10.72
2023-02-17T04:10:24.660Z,10.77
2023-02-17T04:11:26.183Z,10.76
2023-02-17T04:12:27.731Z,10.73
2023-02-17T04:13:29.387Z,10.61
2023-02-17T04:14:31.059Z,10.60
2023-02-17T04:15:32.581Z,10.66
2023-02-17T04:16:34.176Z,10.66
2023-02-17T04:17:38.694Z,10.59
2023-02-17T04:18:40.419Z,10.67
2023-02-17T04:19:42.281Z,10.63
2023-02-17T04:20:43.926Z,10.67
2023-02-17T04:21:45.448Z,10.76
2023-02-17T04:22:47.051Z,10.77
2023-02-17T04:23:48.579Z,10.74
2023-02-17T04:24:50.130Z,10.74
2023-02-17T04:25:51.656Z,10.78
2023-02-17T04:26:53.299Z,10.79
2023-02-17T04:27:54.805Z,10.80
2023-02-17T04:28:56.425Z,10.63
2023-02-17T04:29:57.978Z,10.55
2023-02-17T04:30:59.665Z,10.69
2023-02-17T04:32:01.431Z,10.66
2023-02-17T04:33:03.014Z,10.58
2023-02-17T04:34:04.524Z,10.62
2023-02-17T04:35:06.436Z,10.62
2023-02-17T04:36:08.413Z,10.62
2023-02-17T04:37:10.031Z,10.68
2023-02-17T04:38:11.630Z,10.62
2023-02-17T04:39:13.202Z,10.66
2023-02-17T04:40:15.016Z,10.64
2023-02-17T04:41:16.583Z,10.64
2023-02-17T04:42:18.075Z,10.67
2023-02-17T04:43:19.573Z,10.76
2023-02-17T04:44:21.138Z,10.80
2023-02-17T04:45:23.121Z,10.88
2023-02-17T04:46:24.641Z,10.96
2023-02-17T04:47:26.244Z,10.88
2023-02-17T04:48:27.843Z,10.73
2023-02-17T04:49:29.406Z,10.86
2023-02-17T04:50:30.917Z,10.98
2023-02-17T04:51:32.426Z,10.98
2023-02-17T04:52:34.132Z,11.02
2023-02-17T04:53:35.622Z,11.12
2023-02-17T04:54:37.189Z,11.15
2023-02-17T04:55:38.746Z,11.21
2023-02-17T04:56:40.268Z,11.22
2023-02-17T04:57:41.801Z,11.26
2023-02-17T04:58:43.671Z,11.23
2023-02-17T04:59:45.295Z,11.32
2023-02-17T05:00:47.465Z,11.23
2023-02-17T05:01:49.113Z,11.15
2023-02-17T05:02:50.643Z,11.22
2023-02-17T05:03:52.224Z,11.12
2023-02-17T05:04:54.288Z,11.18
2023-02-17T05:05:55.822Z,11.24
2023-02-17T05:06:57.321Z,11.19
2023-02-17T05:07:58.849Z,11.27
2023-02-17T05:09:01.034Z,11.24
2023-02-17T05:10:02.646Z,11.32
2023-02-17T05:11:04.280Z,11.34
2023-02-17T05:12:06.418Z,11.38
2023-02-17T05:13:08.039Z,11.41
2023-02-17T05:14:09.874Z,11.33
2023-02-17T05:15:11.819Z,11.16
2023-02-17T05:16:13.389Z,11.16
2023-02-17T05:17:16.003Z,11.24
2023-02-17T05:18:17.567Z,11.28
2023-02-17T05:19:19.116Z,11.15
2023-02-17T05:20:20.975Z,11.07
2023-02-17T05:21:22.516Z,11.18
2023-02-17T05:22:24.014Z,11.28
2023-02-17T05:23:25.591Z,11.33
2023-02-17T05:24:27.102Z,11.38
2023-02-17T05:25:28.696Z,11.37
2023-02-17T05:26:30.258Z,11.39
2023-02-17T05:27:32.186Z,11.38
2023-02-17T05:28:33.704Z,11.25
2023-02-17T05:29:35.238Z,11.28
2023-02-17T05:30:36.768Z,11.31
2023-02-17T05:31:38.419Z,11.41
2023-02-17T05:32:40.011Z,11.47
2023-02-17T05:33:41.510Z,11.53
2023-02-17T05:34:43.095Z,11.47
2023-02-17T05:35:44.628Z,11.58
2023-02-17T05:36:46.128Z,11.55
2023-02-17T05:37:47.723Z,11.45
2023-02-17T05:38:50.284Z,11.50
2023-02-17T05:39:51.825Z,11.51
2023-02-17T05:40:53.363Z,11.52
2023-02-17T05:41:56.671Z,11.55
2023-02-17T05:42:58.355Z,11.63
2023-02-17T05:43:59.853Z,11.69
2023-02-17T05:45:01.536Z,11.65
2023-02-17T05:46:03.680Z,11.42
2023-02-17T05:47:05.433Z,11.48
2023-02-17T05:48:06.963Z,11.43
2023-02-17T05:49:08.842Z,11.50
2023-02-17T05:50:10.725Z,11.28
2023-02-17T05:51:13.785Z,11.45
2023-02-17T05:52:16.800Z,11.25
2023-02-17T05:53:18.264Z,11.68
2023-02-17T05:54:20.105Z,11.69
2023-02-17T05:55:22.680Z,11.56
2023-02-17T05:56:24.242Z,11.62
2023-02-17T05:57:25.770Z,11.68
2023-02-17T05:58:27.491Z,11.70
2023-02-17T05:59:29.020Z,11.73
2023-02-17T06:00:30.689Z,11.73
2023-02-17T06:01:32.252Z,11.80
2023-02-17T06:02:33.763Z,11.79
2023-02-17T06:03:35.606Z,11.55
2023-02-17T06:04:37.288Z,11.73
2023-02-17T06:05:39.054Z,11.77
2023-02-17T06:06:40.623Z,11.88
2023-02-17T06:07:42.282Z,11.98
2023-02-17T06:08:44.122Z,12.03
2023-02-17T06:09:47.212Z,11.93
2023-02-17T06:10:48.870Z,11.78
2023-02-17T06:11:50.559Z,11.82
2023-02-17T06:12:52.228Z,11.88
2023-02-17T06:13:53.742Z,12.02
2023-02-17T06:14:55.251Z,12.03
2023-02-17T06:15:56.867Z,11.92
2023-02-17T06:17:01.115Z,12.00
2023-02-17T06:18:03.164Z,11.99
2023-02-17T06:19:05.498Z,11.65
2023-02-17T06:20:07.965Z,11.75
2023-02-17T06:21:09.973Z,11.73
2023-02-17T06:22:11.492Z,11.79
2023-02-17T06:23:13.023Z,11.73
2023-02-17T06:24:14.534Z,11.83
2023-02-17T06:25:16.106Z,11.86
2023-02-17T06:26:18.636Z,11.87
2023-02-17T06:27:20.332Z,11.92
2023-02-17T06:28:22.161Z,11.54
2023-02-17T06:29:23.642Z,11.80
2023-02-17T06:30:25.230Z,11.97
2023-02-17T06:31:26.852Z,11.83
2023-02-17T06:32:28.423Z,12.01
2023-02-17T06:33:30.598Z,12.09
2023-02-17T06:34:32.065Z,12.14
2023-02-17T06:35:33.605Z,12.18
2023-02-17T06:36:35.139Z,11.77
2023-02-17T06:37:36.645Z,11.87
2023-02-17T06:38:38.216Z,11.49
2023-02-17T06:39:39.786Z,11.82
2023-02-17T06:40:41.513Z,12.07
2023-02-17T06:41:43.161Z,12.19
2023-02-17T06:42:45.023Z,12.00
2023-02-17T06:43:46.521Z,12.10
2023-02-17T06:44:48.268Z,12.10
2023-02-17T06:45:49.834Z,11.92
2023-02-17T06:46:51.408Z,11.88
2023-02-17T06:47:53.195Z,12.03
2023-02-17T06:48:54.678Z,12.19
2023-02-17T06:49:56.218Z,12.20
2023-02-17T06:50:57.722Z,11.78
2023-02-17T06:51:59.200Z,11.92
2023-02-17T06:53:01.034Z,12.14
2023-02-17T06:54:02.656Z,12.04
2023-02-17T06:55:04.323Z,12.15
2023-02-17T06:56:06.157Z,12.03
2023-02-17T06:57:07.867Z,12.20
2023-02-17T06:58:09.724Z,12.19
2023-02-17T06:59:11.286Z,12.34
2023-02-17T07:00:13.139Z,12.04
2023-02-17T07:01:19.333Z,12.08
2023-02-17T07:02:20.940Z,12.06
2023-02-17T07:03:22.534Z,12.11
2023-02-17T07:04:24.043Z,12.05
2023-02-17T07:05:25.591Z,12.13
2023-02-17T07:06:27.222Z,12.33
2023-02-17T07:07:29.093Z,12.24
2023-02-17T07:08:31.667Z,12.42
2023-02-17T07:09:39.251Z,12.48
2023-02-17T07:10:40.797Z,12.46
2023-02-17T07:11:44.448Z,11.92
2023-02-17T07:12:46.305Z,12.16
2023-02-17T07:13:47.835Z,11.82
2023-02-17T07:14:49.306Z,12.07
2023-02-17T07:15:50.839Z,11.75
2023-02-17T07:16:52.391Z,11.61
2023-02-17T07:17:54.209Z,11.72
2023-02-17T07:18:55.787Z,11.55
2023-02-17T07:19:57.296Z,11.60
2023-02-17T07:20:58.845Z,11.77
2023-02-17T07:22:00.348Z,12.01
2023-02-17T07:23:01.928Z,11.98
2023-02-17T07:24:03.739Z,12.08
2023-02-17T07:25:05.987Z,12.07
2023-02-17T07:26:09.689Z,12.07
2023-02-17T07:27:11.678Z,12.16
2023-02-17T07:28:13.234Z,12.25
2023-02-17T07:29:14.763Z,12.19
2023-02-17T07:30:16.580Z,12.37
2023-02-17T07:31:18.441Z,12.36
2023-02-17T07:32:20.308Z,12.18
2023-02-17T07:33:21.805Z,12.35
2023-02-17T07:34:23.315Z,12.25
2023-02-17T07:35:24.781Z,12.08
2023-02-17T07:36:26.272Z,12.14
2023-02-17T07:37:28.090Z,12.21
2023-02-17T07:38:29.568Z,12.18
2023-02-17T07:39:31.107Z,12.20
2023-02-17T07:40:32.600Z,12.31
2023-02-17T07:41:34.086Z,11.81
2023-02-17T07:42:35.904Z,12.18
2023-02-17T07:43:37.500Z,12.02
2023-02-17T07:44:38.997Z,12.06
2023-02-17T07:45:40.619Z,12.13
2023-02-17T07:46:42.481Z,12.05
2023-02-17T07:47:44.350Z,11.92
2023-02-17T07:48:46.538Z,12.03
2023-02-17T07:49:48.028Z,12.12
2023-02-17T07:50:49.561Z,12.12
2023-02-17T07:51:51.122Z,12.03
2023-02-17T07:52:52.954Z,12.02
2023-02-17T07:53:55.032Z,12.07
2023-02-17T07:54:56.545Z,12.02
2023-02-17T07:55:58.059Z,11.79
2023-02-17T07:56:59.807Z,11.68
2023-02-17T07:58:01.744Z,11.97
2023-02-17T07:59:03.288Z,12.04
2023-02-17T08:00:05.786Z,12.13
2023-02-17T08:01:08.313Z,11.91
2023-02-17T08:02:11.520Z,11.88
2023-02-17T08:03:13.449Z,12.06
2023-02-17T08:04:14.944Z,12.24
2023-02-17T08:05:16.448Z,12.11
2023-02-17T08:06:19.650Z,12.31
2023-02-17T08:07:21.162Z,12.44
2023-02-17T08:08:52.066Z,12.20
2023-02-17T08:10:11.846Z,12.26
2023-02-17T08:11:32.933Z,12.17
2023-02-17T08:12:53.179Z,12.47
2023-02-17T08:13:54.712Z,12.22
2023-02-17T08:14:57.760Z,11.90
2023-02-17T08:15:59.456Z,12.14
2023-02-17T08:17:00.985Z,12.22
2023-02-17T08:18:05.166Z,12.06
2023-02-17T08:19:07.731Z,11.99
2023-02-17T08:20:09.557Z,12.22
2023-02-17T08:21:11.072Z,12.31
2023-02-17T08:22:12.774Z,12.43
2023-02-17T08:23:14.318Z,11.96
2023-02-17T08:24:16.487Z,12.23
2023-02-17T08:25:19.089Z,11.59
2023-02-17T08:26:20.703Z,11.89
2023-02-17T08:27:22.316Z,11.57
2023-02-17T08:28:23.874Z,12.01
2023-02-17T08:29:25.451Z,11.88
2023-02-17T08:30:27.078Z,11.95
2023-02-17T08:31:30.851Z,12.12
2023-02-17T08:32:32.434Z,12.30
2023-02-17T08:33:34.292Z,12.44
2023-02-17T08:34:35.922Z,12.24
2023-02-17T08:35:37.446Z,12.23
2023-02-17T08:36:39.275Z,11.92
2023-02-17T08:37:40.879Z,11.99
2023-02-17T08:38:42.534Z,12.21
2023-02-17T08:39:44.031Z,12.22
2023-02-17T08:40:45.610Z,11.85
2023-02-17T08:41:47.161Z,11.94
2023-02-17T08:42:48.668Z,12.12
2023-02-17T08:43:50.645Z,12.29
2023-02-17T08:44:52.177Z,12.30
2023-02-17T08:45:53.753Z,12.32
2023-02-17T08:46:55.319Z,11.96
2023-02-17T08:47:56.839Z,11.97
2023-02-17T08:48:58.398Z,12.19
2023-02-17T08:49:59.964Z,12.24
2023-02-17T08:51:01.541Z,12.16
2023-02-17T08:52:03.364Z,12.28
2023-02-17T08:53:04.882Z,12.35
2023-02-17T08:54:06.858Z,12.44
2023-02-17T08:55:08.442Z,12.24
2023-02-17T08:56:09.976Z,12.35
2023-02-17T08:57:11.496Z,12.21
2023-02-17T08:58:13.020Z,12.14
2023-02-17T08:59:14.711Z,12.17
2023-02-17T09:00:17.176Z,12.29
2023-02-17T09:01:19.160Z,12.31
2023-02-17T09:02:20.802Z,12.13
2023-02-17T09:03:22.354Z,12.21
2023-02-17T09:04:24.007Z,12.38
2023-02-17T09:05:25.655Z,12.51
2023-02-17T09:06:33.641Z,12.46
2023-02-17T09:07:35.147Z,12.49
2023-02-17T09:08:36.891Z,12.48
2023-02-17T09:09:38.473Z,12.43
2023-02-17T09:10:40.150Z,12.38
2023-02-17T09:11:41.699Z,12.08
2023-02-17T09:12:43.246Z,12.14
2023-02-17T09:13:44.865Z,12.15
2023-02-17T09:14:46.390Z,12.21
2023-02-17T09:15:48.012Z,12.23
2023-02-17T09:16:51.277Z,12.40
2023-02-17T09:17:52.840Z,12.45
2023-02-17T09:18:54.499Z,12.44
2023-02-17T09:19:56.072Z,12.46
2023-02-17T09:20:58.496Z,12.54
2023-02-17T09:22:00.194Z,12.42
2023-02-17T09:23:01.790Z,12.47
2023-02-17T09:24:03.534Z,12.47
2023-02-17T09:25:05.387Z,12.38
2023-02-17T09:26:08.888Z,12.53
2023-02-17T09:27:10.651Z,12.58
2023-02-17T09:28:13.888Z,12.68
2023-02-17T09:29:15.457Z,12.76
2023-02-17T09:30:17.048Z,12.49
2023-02-17T09:31:22.761Z,12.45
2023-02-17T09:32:24.485Z,12.26
2023-02-17T09:33:27.212Z,12.38
2023-02-17T09:34:28.821Z,12.52
2023-02-17T09:35:30.301Z,12.51
2023-02-17T09:36:33.476Z,12.57
2023-02-17T09:37:34.990Z,12.44
2023-02-17T09:38:37.796Z,12.33
2023-02-17T09:39:39.731Z,12.21
2023-02-17T09:40:41.110Z,12.19
2023-02-17T09:41:48.210Z,12.20
2023-02-17T09:42:49.778Z,12.27
2023-02-17T09:43:51.744Z,12.24
2023-02-17T09:45:04.768Z,12.30
2023-02-17T09:46:11.132Z,11.93
2023-02-17T09:47:16.246Z,12.36
2023-02-17T09:48:18.970Z,12.29
2023-02-17T09:49:23.168Z,12.50
2023-02-17T09:50:45.762Z,12.48
2023-02-17T09:52:07.724Z,12.31
2023-02-17T09:53:09.140Z,12.20
2023-02-17T09:54:19.732Z,12.11
2023-02-17T09:55:26.656Z,12.23
2023-02-17T09:56:33.530Z,12.41
2023-02-17T09:57:45.772Z,12.41
2023-02-17T09:58:49.348Z,12.17
2023-02-17T09:59:55.242Z,12.17
2023-02-17T10:00:58.232Z,12.39
2023-02-17T10:01:59.597Z,12.84
2023-02-17T10:03:11.976Z,12.78
2023-02-17T10:04:24.434Z,12.75
2023-02-17T10:05:28.366Z,12.77
2023-02-17T10:06:33.409Z,12.20
2023-02-17T10:07:44.579Z,11.97
2023-02-17T10:09:26.089Z,12.26
2023-02-17T10:10:53.374Z,11.85
2023-02-17T10:12:13.796Z,12.20
2023-02-17T10:13:16.262Z,12.30
2023-02-17T10:14:29.720Z,12.48
2023-02-17T10:15:35.426Z,12.12
2023-02-17T10:16:40.893Z,12.29
2023-02-17T10:17:53.874Z,12.20
2023-02-17T10:19:08.225Z,12.12
2023-02-17T10:20:09.669Z,12.29
2023-02-17T10:21:13.261Z,12.35
2023-02-17T10:22:17.690Z,12.58
2023-02-17T10:23:20.878Z,12.11
2023-02-17T10:24:22.563Z,12.24
2023-02-17T10:25:41.986Z,12.27
2023-02-17T10:26:45.253Z,11.96
2023-02-17T10:27:51.936Z,12.24
2023-02-17T10:28:56.262Z,12.38
2023-02-17T10:30:06.413Z,12.51
2023-02-17T10:31:13.212Z,12.52
2023-02-17T10:32:24.686Z,12.67
2023-02-17T10:33:35.350Z,12.35
2023-02-17T10:34:41.229Z,12.26
2023-02-17T10:36:26.980Z,12.03
2023-02-17T10:37:43.477Z,12.29
2023-02-17T10:39:15.087Z,12.12
2023-02-17T10:40:27.120Z,12.47
2023-02-17T10:41:34.380Z,12.60
2023-02-17T10:42:37.527Z,12.57
2023-02-17T10:43:39.121Z,12.33
2023-02-17T10:44:41.028Z,12.56
2023-02-17T10:45:44.162Z,12.53
2023-02-17T10:46:45.792Z,12.41
2023-02-17T10:47:47.332Z,12.67
2023-02-17T10:48:50.763Z,12.44
2023-02-17T10:49:53.766Z,12.60
2023-02-17T10:50:56.233Z,13.12
2023-02-17T10:52:11.851Z,12.91
2023-02-17T10:53:25.192Z,12.68
2023-02-17T10:54:33.160Z,12.61
2023-02-17T10:55:39.122Z,12.46
2023-02-17T10:56:51.056Z,12.50
2023-02-17T10:57:57.551Z,12.56
2023-02-17T10:59:20.601Z,12.45
2023-02-17T11:00:23.115Z,12.64
2023-02-17T11:01:24.793Z,12.50
2023-02-17T11:02:41.973Z,12.46
2023-02-17T11:03:43.499Z,12.57
2023-02-17T11:04:47.058Z,12.71
2023-02-17T11:06:02.006Z,12.61
2023-02-17T11:07:03.510Z,12.52
2023-02-17T11:08:07.298Z,12.55
2023-02-17T11:09:28.624Z,12.94
2023-02-17T11:10:35.365Z,13.42
2023-02-17T11:11:36.915Z,13.22
2023-02-17T11:12:41.237Z,13.13
2023-02-17T11:14:10.113Z,13.02
2023-02-17T11:15:19.235Z,12.76
2023-02-17T11:16:40.110Z,13.39
2023-02-17T11:17:41.704Z,13.32
2023-02-17T11:18:44.556Z,13.23
2023-02-17T11:19:58.309Z,12.88
2023-02-17T11:21:08.148Z,13.14
2023-02-17T11:22:48.751Z,13.12
2023-02-17T11:23:54.707Z,13.17
2023-02-17T11:25:00.072Z,13.06
2023-02-17T11:26:16.622Z,13.16
2023-02-17T11:27:23.800Z,13.26
2023-02-17T11:28:25.998Z,12.63
2023-02-17T11:29:27.610Z,12.68
2023-02-17T11:30:31.203Z,12.95
2023-02-17T11:31:32.802Z,13.04
2023-02-17T11:32:34.381Z,12.62
2023-02-17T11:33:39.169Z,12.80
2023-02-17T11:34:42.594Z,13.02
2023-02-17T11:35:52.971Z,13.14
2023-02-17T11:37:04.314Z,13.18
2023-02-17T11:38:22.926Z,13.27
2023-02-17T11:39:24.535Z,13.18
2023-02-17T11:40:29.008Z,13.15
2023-02-17T11:41:39.561Z,13.04
2023-02-17T11:42:41.075Z,13.14
2023-02-17T11:43:54.326Z,13.18
2023-02-17T11:44:57.588Z,13.06
2023-02-17T11:46:04.054Z,12.91
2023-02-17T11:47:11.817Z,12.92
2023-02-17T11:48:43.786Z,13.10
2023-02-17T11:50:26.160Z,12.62
2023-02-17T11:51:52.523Z,12.40
2023-02-17T11:53:08.073Z,12.51
2023-02-17T11:54:26.439Z,12.66
2023-02-17T11:55:59.494Z,12.83
2023-02-17T11:57:19.865Z,12.71
2023-02-17T11:58:30.666Z,12.81
2023-02-17T11:59:34.728Z,12.97
2023-02-17T12:00:50.944Z,12.99
2023-02-17T12:02:02.780Z,13.03
2023-02-17T12:03:10.256Z,12.57
2023-02-17T12:04:21.461Z,12.65
2023-02-17T12:05:47.193Z,12.78
2023-02-17T12:07:11.422Z,12.78
2023-02-17T12:08:19.079Z,13.01
2023-02-17T12:09:27.419Z,12.78
2023-02-17T12:10:51.362Z,12.91
2023-02-17T12:12:05.175Z,12.93
2023-02-17T12:13:39.525Z,13.02
2023-02-17T12:15:01.864Z,13.14
2023-02-17T12:16:28.471Z,13.28
2023-02-17T12:17:59.064Z,13.43
2023-02-17T12:19:26.615Z,13.33
2023-02-17T12:20:42.100Z,12.98
2023-02-17T12:21:52.473Z,13.08
2023-02-17T12:23:23.023Z,13.06
2023-02-17T12:24:52.036Z,13.11
2023-02-17T12:25:56.471Z,13.23
2023-02-17T12:27:25.306Z,13.20
2023-02-17T12:28:39.439Z,13.34
2023-02-17T12:30:12.437Z,12.61
2023-02-17T12:31:24.799Z,13.01
2023-02-17T12:32:32.502Z,13.23
2023-02-17T12:33:42.885Z,13.24
2023-02-17T12:34:48.603Z,12.87
2023-02-17T12:35:53.067Z,12.86
2023-02-17T12:36:56.240Z,13.04
2023-02-17T12:38:02.304Z,12.93
2023-02-17T12:39:20.105Z,12.56
2023-02-17T12:40:39.164Z,13.03
2023-02-17T12:41:43.345Z,12.67
2023-02-17T12:42:53.313Z,12.81
2023-02-17T12:44:05.560Z,12.87
2023-02-17T12:45:36.470Z,12.99
2023-02-17T12:46:45.081Z,12.94
2023-02-17T12:48:02.526Z,12.88
2023-02-17T12:49:30.442Z,13.10
2023-02-17T12:50:39.261Z,13.11
2023-02-17T12:51:51.384Z,13.21
2023-02-17T12:52:54.799Z,13.12
2023-02-17T12:54:12.873Z,13.08
2023-02-17T12:55:14.302Z,12.99
2023-02-17T12:56:25.178Z,12.75
2023-02-17T12:57:44.982Z,13.05
2023-02-17T12:58:46.516Z,13.09
2023-02-17T12:59:50.333Z,13.20
2023-02-17T13:01:13.912Z,13.22
2023-02-17T13:02:17.181Z,13.22
2023-02-17T13:03:18.891Z,13.30
2023-02-17T13:04:20.631Z,13.26
2023-02-17T13:05:31.265Z,13.21
2023-02-17T13:06:41.754Z,12.88
2023-02-17T13:07:49.787Z,13.02
2023-02-17T13:09:30.031Z,13.17
2023-02-17T13:10:34.180Z,13.27
2023-02-17T13:11:35.753Z,13.20
2023-02-17T13:12:41.300Z,13.24
2023-02-17T13:13:42.815Z,13.20
2023-02-17T13:14:44.315Z,13.29
2023-02-17T13:15:46.402Z,13.21
2023-02-17T13:16:48.334Z,13.28
2023-02-17T13:18:02.306Z,13.38
2023-02-17T13:19:07.426Z,13.49
2023-02-17T13:20:12.057Z,13.49
2023-02-17T13:21:21.582Z,13.57
2023-02-17T13:22:24.049Z,13.40
2023-02-17T13:23:29.641Z,13.58
2023-02-17T13:24:34.920Z,13.61
2023-02-17T13:25:37.768Z,13.64
2023-02-17T13:26:42.831Z,14.04
2023-02-17T13:27:44.318Z,13.92
2023-02-17T13:28:45.985Z,13.81
2023-02-17T13:29:57.949Z,13.23
2023-02-17T13:31:17.713Z,13.21
2023-02-17T13:32:30.438Z,13.46
2023-02-17T13:33:31.990Z,13.46
2023-02-17T13:34:44.163Z,13.44
2023-02-17T13:35:45.744Z,13.51
2023-02-17T13:36:47.256Z,13.61
2023-02-17T13:37:48.727Z,13.66
2023-02-17T13:39:28.605Z,13.25
2023-02-17T13:40:30.158Z,13.55
2023-02-17T13:41:44.944Z,13.44
2023-02-17T13:42:47.749Z,13.52
2023-02-17T13:43:49.301Z,13.46
2023-02-17T13:44:50.998Z,13.16
2023-02-17T13:45:57.543Z,13.31
2023-02-17T13:47:15.251Z,13.55
2023-02-17T13:48:27.703Z,13.59
2023-02-17T13:49:32.916Z,13.50
2023-02-17T13:50:36.977Z,13.43
2023-02-17T13:51:38.486Z,13.54
2023-02-17T13:52:40.301Z,13.47
2023-02-17T13:53:42.202Z,13.46
2023-02-17T13:54:52.998Z,13.23
2023-02-17T13:55:56.855Z,13.39
2023-02-17T13:56:58.361Z,13.36
2023-02-17T13:57:59.970Z,13.24
2023-02-17T13:59:13.663Z,13.34
2023-02-17T14:00:31.709Z,13.19
2023-02-17T14:01:35.633Z,13.54